Terminal Aerodrome Forecast
Issued by NWS

Home | Current Version | Previous Version | Text Only | Print | Product List | Glossary On
Versions: 1 2 3 4 5 6 7 8 9 10 11 12 13 14 15 16 17 18 19 20 21 22 23 24 25
000
FTUS42 KCAE 010200 AAB
TAFOGB
TAF AMD
KOGB 010249Z 0103/0124 05005KT P6SM VCSH BKN015
     FM010800 VRB03KT 3SM BR OVC007
     FM011500 07006KT P6SM OVC020
     FM011800 07007KT P6SM VCSH OVC050=

USA.gov is the U.S. government's official web portal to all federal, state and local government web resources and services.